Pagina principală
METAR-TAF:

METAR-TAF

Aeroporturi :

Denison Municipal Airport

Denison, Iowa, Statele Unite ale Americii

Latitudine: 41-59N, longitudine: 095-23W, elevație: 388 m

Observații meteo curente

Raportul a fost făcut în urmă cu 34 de minute, la 02:35 UTC
Vânt 16 kt de la Nord-vest cu rafale de până la 24 kt
Temperatură 14°C
Umiditate 94%
Presiune 1006 hPa
Vizibilitate: 16.1 km
Total acoperit la o înălțime de 2800 picior

METAR: KDNS 220235Z AUTO 31016G24KT 10SM OVC028 14/13 A2970 RMK AO2

Ora: 22:09 (03:09 UTC)


TAF: lipsă

Observații și prognoze meteo pentru peste 4.000 de aeroporturi (rapoarte METAR și TAF).

Stațiile disponibile sunt reprezentate pe hartă prin puncte galbene și roșii.

Țineți indicatorul mouse-ului pe punctul dorit pentru a vedea denumirea stației.

Apoi, faceți clic pentru a vedea observațiile și prognozele meteorologice.

Pentru a schimba harta: Pentru mărire, faceți clic pe butoanele verzi cu cruce neagră; pentru micșorare, pe butonul verde cu o liniuță; pentru hărți învecinate, pe săgețile verzi.


METAR-TAF: